createdAt,value
2017-09-24T07:45:54.310Z,25.23
2017-09-24T07:48:23.263Z,24.03
2017-09-24T07:50:52.141Z,23.07
2017-09-24T08:02:16.150Z,31.20
2017-09-24T08:04:45.037Z,29.77
2017-09-24T08:07:13.907Z,30.97
2017-09-24T08:09:42.814Z,25.27
2017-09-24T08:12:11.707Z,29.13
2017-09-24T08:14:40.558Z,27.00
2017-09-24T08:17:09.449Z,29.00
2017-09-24T08:19:38.295Z,33.90
2017-09-24T08:22:07.166Z,28.37
2017-09-24T08:24:36.116Z,29.30
2017-09-24T08:27:05.008Z,33.60
2017-09-24T08:29:33.905Z,27.87
2017-09-24T08:32:02.889Z,30.73
2017-09-24T08:34:31.789Z,30.70
2017-09-24T08:37:00.651Z,26.10
2017-09-24T08:39:29.757Z,26.50
2017-09-24T08:41:58.627Z,29.73
2017-09-24T08:44:27.507Z,33.70
2017-09-24T08:46:56.417Z,30.33
2017-09-24T08:49:26.225Z,30.90
2017-09-24T08:51:55.145Z,32.80
2017-09-24T08:54:24.043Z,27.93
2017-09-24T08:56:52.907Z,27.63
2017-09-24T08:59:21.768Z,27.70
2017-09-24T09:01:50.675Z,27.90
2017-09-24T09:04:20.358Z,26.00
2017-09-24T09:06:49.238Z,25.37
2017-09-24T09:09:18.129Z,25.07
2017-09-24T09:11:47.107Z,23.50
2017-09-24T09:14:15.990Z,26.30
2017-09-24T09:16:44.960Z,23.90
2017-09-24T09:19:13.871Z,25.93
2017-09-24T09:21:45.574Z,25.97
2017-09-24T09:24:14.855Z,24.47
2017-09-24T09:26:43.805Z,24.07
2017-09-24T09:29:13.304Z,20.47
2017-09-24T09:31:42.485Z,18.63
2017-09-24T09:34:17.409Z,20.53
2017-09-24T09:36:46.296Z,20.13
2017-09-24T09:39:15.173Z,21.30
2017-09-24T09:41:44.388Z,21.23
2017-09-24T09:44:19.355Z,20.67
2017-09-24T09:46:54.436Z,19.33
2017-09-24T09:49:23.290Z,18.43
2017-09-24T09:51:52.164Z,19.17
2017-09-24T09:54:21.053Z,16.50
2017-09-24T09:56:49.917Z,15.47
2017-09-24T09:59:18.772Z,16.73
2017-09-24T10:01:48.531Z,15.30
2017-09-24T10:04:17.519Z,16.37
2017-09-24T10:06:52.530Z,16.13
2017-09-24T10:09:27.563Z,18.30
2017-09-24T10:11:56.613Z,14.23
2017-09-24T10:14:25.489Z,15.77
2017-09-24T10:16:54.388Z,18.27
2017-09-24T10:19:23.372Z,16.60
2017-09-24T10:21:52.243Z,16.83
2017-09-24T10:24:21.161Z,15.70
2017-09-24T10:26:50.440Z,16.00
2017-09-24T10:29:25.121Z,15.90
2017-09-24T10:31:59.830Z,14.07
2017-09-24T10:34:28.741Z,16.80
2017-09-24T10:36:57.610Z,17.13
2017-09-24T10:39:27.351Z,16.13
2017-09-24T10:41:56.526Z,14.97
2017-09-24T10:44:25.506Z,13.70
2017-09-24T10:46:54.430Z,13.90
2017-09-24T10:49:23.323Z,14.60
2017-09-24T10:51:52.196Z,13.83
2017-09-24T10:54:21.098Z,14.03
2017-09-24T10:56:49.991Z,14.87
2017-09-24T10:59:18.880Z,14.60
2017-09-24T11:01:47.787Z,14.03
2017-09-24T11:04:16.672Z,13.03
2017-09-24T11:06:45.559Z,11.73
2017-09-24T11:09:14.476Z,11.90
2017-09-24T11:11:43.377Z,11.73
2017-09-24T11:14:12.247Z,10.67
2017-09-24T11:16:41.189Z,11.17
2017-09-24T11:19:10.082Z,10.43
2017-09-24T11:21:38.960Z,11.80
2017-09-24T11:24:07.908Z,11.20
2017-09-24T11:26:36.797Z,12.70
2017-09-24T11:29:05.678Z,11.67
2017-09-24T11:31:34.576Z,10.73
2017-09-24T11:34:03.430Z,11.23
2017-09-24T11:36:32.278Z,10.10
2017-09-24T11:39:01.169Z,10.37
2017-09-24T11:41:30.039Z,10.90
2017-09-24T11:43:58.917Z,9.87
2017-09-24T11:46:27.823Z,10.50
2017-09-24T11:48:56.739Z,9.27
2017-09-24T11:51:25.601Z,11.10
2017-09-24T11:53:54.521Z,9.80
2017-09-24T11:56:23.384Z,10.70
2017-09-24T11:58:52.281Z,9.73
2017-09-24T12:01:21.216Z,10.10
2017-09-24T12:03:50.095Z,9.30
2017-09-24T12:06:18.938Z,9.80
2017-09-24T12:08:47.853Z,10.20
2017-09-24T12:11:16.707Z,9.80
2017-09-24T12:13:45.586Z,8.70
2017-09-24T12:16:14.479Z,8.63
2017-09-24T12:18:43.330Z,10.93
2017-09-24T12:21:12.216Z,13.10
2017-09-24T12:23:41.094Z,10.43
2017-09-24T12:26:09.935Z,9.93
2017-09-24T12:28:38.804Z,10.37
2017-09-24T12:31:07.728Z,10.90
2017-09-24T12:33:36.570Z,10.63
2017-09-24T12:36:05.427Z,10.17
2017-09-24T12:38:34.580Z,10.57
2017-09-24T12:41:03.450Z,8.07
2017-09-24T12:43:32.330Z,8.93
2017-09-24T12:46:01.268Z,7.73
2017-09-24T12:48:30.142Z,8.60
2017-09-24T12:50:59.162Z,7.80
2017-09-24T12:53:28.091Z,8.30
2017-09-24T12:55:56.956Z,8.73
2017-09-24T12:58:25.845Z,8.93
2017-09-24T13:00:54.746Z,8.17
2017-09-24T13:03:23.597Z,8.00
2017-09-24T13:05:52.576Z,9.20
2017-09-24T13:08:21.491Z,8.17
2017-09-24T13:10:50.342Z,8.20
2017-09-24T13:13:19.191Z,7.83
2017-09-24T13:15:48.104Z,8.80
2017-09-24T13:18:16.969Z,8.47
2017-09-24T13:20:45.815Z,8.43
2017-09-24T13:23:14.868Z,9.20
2017-09-24T13:25:43.732Z,9.00
2017-09-24T13:28:12.586Z,8.50
2017-09-24T13:30:41.494Z,7.93
2017-09-24T13:33:10.371Z,8.47
2017-09-24T13:35:39.283Z,9.90
2017-09-24T13:38:08.252Z,8.27
2017-09-24T13:40:37.124Z,9.30
2017-09-24T13:43:05.973Z,9.10
2017-09-24T13:45:34.874Z,8.37
2017-09-24T13:48:03.797Z,8.80
2017-09-24T13:50:32.687Z,8.73
2017-09-24T13:53:01.591Z,8.93
2017-09-24T13:55:30.471Z,8.40
2017-09-24T13:57:59.613Z,10.40
2017-09-24T14:00:28.716Z,9.87
2017-09-24T14:02:57.595Z,11.33
2017-09-24T14:05:26.463Z,11.33
2017-09-24T14:07:55.358Z,10.47
2017-09-24T14:10:24.293Z,10.60
2017-09-24T14:12:53.157Z,11.50
2017-09-24T14:15:22.168Z,10.33
2017-09-24T14:17:51.037Z,9.40
2017-09-24T14:20:19.980Z,10.13
2017-09-24T14:22:48.894Z,10.30
2017-09-24T14:25:17.760Z,10.47
2017-09-24T14:27:46.657Z,8.37
2017-09-24T14:30:15.705Z,9.37
2017-09-24T14:32:44.915Z,9.83
2017-09-24T14:35:13.784Z,8.90
2017-09-24T14:37:42.867Z,10.50
2017-09-24T14:40:11.729Z,7.80
2017-09-24T14:42:40.678Z,9.90
2017-09-24T14:45:09.599Z,10.83
2017-09-24T14:47:38.456Z,9.57
2017-09-24T14:50:07.319Z,8.93
2017-09-24T14:52:36.234Z,9.77
2017-09-24T14:55:05.113Z,9.97
2017-09-24T14:57:33.964Z,8.00
2017-09-24T15:00:02.866Z,9.63
2017-09-24T15:02:31.735Z,9.97
2017-09-24T15:05:00.586Z,9.30
2017-09-24T15:07:29.581Z,9.73
2017-09-24T15:09:58.614Z,10.83
2017-09-24T15:12:27.474Z,10.90
2017-09-24T15:14:56.397Z,9.60
2017-09-24T15:17:25.567Z,10.13
2017-09-24T15:19:54.454Z,40.60
2017-09-24T15:22:23.400Z,30.77
2017-09-24T15:24:52.276Z,22.33
2017-09-24T15:27:21.130Z,18.07
2017-09-24T15:29:50.160Z,17.47
2017-09-24T15:32:19.030Z,19.17
2017-09-24T15:34:47.887Z,12.73
2017-09-24T15:37:16.989Z,13.27
2017-09-24T15:39:45.864Z,12.70
2017-09-24T15:42:14.728Z,10.93
2017-09-24T15:44:43.642Z,9.93
2017-09-24T15:47:12.499Z,10.43
2017-09-24T15:49:41.407Z,13.97
2017-09-24T15:52:10.601Z,11.00
2017-09-24T15:54:39.478Z,11.50
2017-09-24T15:57:08.414Z,11.67
2017-09-24T15:59:37.319Z,10.50
2017-09-24T16:02:06.206Z,10.37
2017-09-24T16:04:35.075Z,10.20
2017-09-24T16:07:03.990Z,11.30
2017-09-24T16:09:32.864Z,10.50
2017-09-24T16:12:01.734Z,11.20
2017-09-24T16:14:30.779Z,12.13
2017-09-24T16:16:59.688Z,9.07
2017-09-24T16:19:28.619Z,10.93
2017-09-24T16:21:57.662Z,11.53
2017-09-24T16:24:26.593Z,11.60
2017-09-24T16:26:55.524Z,11.47
2017-09-24T16:29:24.429Z,13.13
2017-09-24T16:31:53.371Z,14.83
2017-09-24T16:34:22.278Z,11.97
2017-09-24T16:36:51.398Z,13.20
2017-09-24T16:39:20.307Z,15.50
2017-09-24T16:41:49.183Z,16.80
2017-09-24T16:44:18.086Z,16.63
2017-09-24T16:46:46.981Z,15.60
2017-09-24T16:49:15.863Z,17.73
2017-09-24T16:51:44.799Z,23.63
2017-09-24T16:54:13.659Z,19.40
2017-09-24T16:56:42.536Z,15.70
2017-09-24T16:59:11.427Z,14.40
2017-09-24T17:01:40.317Z,12.13
2017-09-24T17:04:09.172Z,13.23
2017-09-24T17:06:38.164Z,15.13
2017-09-24T17:09:07.159Z,15.10
2017-09-24T17:11:36.068Z,14.80
2017-09-24T17:14:05.007Z,13.43
2017-09-24T17:16:33.884Z,10.53
2017-09-24T17:19:02.750Z,11.20
2017-09-24T17:21:31.639Z,12.87
2017-09-24T17:24:00.499Z,12.17
2017-09-24T17:26:29.382Z,14.57
2017-09-24T17:28:58.340Z,12.50
2017-09-24T17:31:27.222Z,14.07
2017-09-24T17:33:56.119Z,15.70
2017-09-24T17:36:25.005Z,14.53
2017-09-24T17:38:53.878Z,17.83
2017-09-24T17:41:22.739Z,18.17
2017-09-24T17:43:51.619Z,30.50
2017-09-24T17:46:20.502Z,21.27
2017-09-24T17:48:49.401Z,18.90
2017-09-24T17:51:18.276Z,18.87
2017-09-24T17:53:47.127Z,17.30
2017-09-24T17:56:16.161Z,19.10
2017-09-24T17:58:45.047Z,16.37
2017-09-24T18:01:13.944Z,20.80
2017-09-24T18:03:42.858Z,23.20
2017-09-24T18:06:11.737Z,21.27
2017-09-24T18:08:40.673Z,22.53
2017-09-24T18:11:09.671Z,24.40
2017-09-24T18:13:38.533Z,23.80
2017-09-24T18:16:07.425Z,25.10
2017-09-24T18:18:36.371Z,25.63
2017-09-24T18:21:05.235Z,26.80
2017-09-24T18:23:34.144Z,23.47
2017-09-24T18:26:03.037Z,23.10
2017-09-24T18:28:31.917Z,20.27
2017-09-24T18:31:00.912Z,23.70
2017-09-24T18:33:30.172Z,19.90
2017-09-24T18:35:59.047Z,20.53
2017-09-24T18:38:27.950Z,17.93
2017-09-24T18:40:56.856Z,16.03
2017-09-24T18:43:25.729Z,14.90
2017-09-24T18:45:54.622Z,17.20
2017-09-24T18:48:23.554Z,16.80
2017-09-24T18:50:52.437Z,15.73
2017-09-24T18:53:21.294Z,15.77
2017-09-24T18:55:50.198Z,18.43
2017-09-24T18:58:19.064Z,13.50
2017-09-24T19:00:47.955Z,14.73
2017-09-24T19:03:16.872Z,18.50
2017-09-24T19:05:45.736Z,16.97
2017-09-24T19:08:14.639Z,16.40
2017-09-24T19:10:43.510Z,14.90
2017-09-24T19:13:12.426Z,13.90
2017-09-24T19:15:41.547Z,14.50
2017-09-24T19:18:10.426Z,18.25
2017-09-24T19:20:39.320Z,16.90
2017-09-24T19:23:08.214Z,16.00
2017-09-24T19:25:37.108Z,17.67
2017-09-24T19:28:05.993Z,14.40
2017-09-24T19:30:34.887Z,16.83
2017-09-24T19:33:03.747Z,18.60
2017-09-24T19:35:32.612Z,17.93
2017-09-24T19:38:01.522Z,17.23
2017-09-24T19:40:30.402Z,17.30
2017-09-24T19:42:59.301Z,19.60
2017-09-24T19:45:28.456Z,19.97
2017-09-24T19:47:57.315Z,17.70
2017-09-24T19:50:26.310Z,16.83
2017-09-24T19:52:55.214Z,18.43
2017-09-24T19:55:24.140Z,17.80
2017-09-24T19:57:53.055Z,20.00
2017-09-24T20:00:22.286Z,18.20
2017-09-24T20:02:51.178Z,19.70
2017-09-24T20:05:20.097Z,18.47
2017-09-24T20:07:49.021Z,16.70
2017-09-24T20:10:17.911Z,18.63
2017-09-24T20:12:46.785Z,18.43
2017-09-24T20:15:15.733Z,19.77
2017-09-24T20:17:44.580Z,17.47
2017-09-24T20:20:13.430Z,20.53
2017-09-24T20:22:42.330Z,19.70
2017-09-24T20:25:11.204Z,20.23
2017-09-24T20:27:40.166Z,19.60
2017-09-24T20:30:09.068Z,20.37
2017-09-24T20:32:38.506Z,21.63
2017-09-24T20:35:07.415Z,20.30
2017-09-24T20:37:36.351Z,23.03
2017-09-24T20:40:05.216Z,27.10
2017-09-24T20:42:34.066Z,23.20
2017-09-24T20:45:02.954Z,23.53
2017-09-24T20:47:31.808Z,23.03
2017-09-24T20:50:00.702Z,23.07
2017-09-24T20:52:30.471Z,33.33
2017-09-24T20:54:59.335Z,29.60
2017-09-24T20:57:28.219Z,23.63
2017-09-24T20:59:57.147Z,25.63
2017-09-24T21:02:26.023Z,25.40
2017-09-24T21:04:54.879Z,24.30
2017-09-24T21:07:23.812Z,23.90
2017-09-24T21:09:52.658Z,23.40
2017-09-24T21:12:21.515Z,24.67
2017-09-24T21:14:50.429Z,23.60
2017-09-24T21:17:19.298Z,23.07
2017-09-24T21:19:48.147Z,23.83
2017-09-24T21:22:17.063Z,23.43
2017-09-24T21:24:45.941Z,24.30
2017-09-24T21:27:14.915Z,22.23
2017-09-24T21:29:43.803Z,22.53
2017-09-24T21:32:12.697Z,20.73
2017-09-24T21:34:41.543Z,21.60
2017-09-24T21:37:10.598Z,22.13
2017-09-24T21:39:39.461Z,22.00
2017-09-24T21:42:08.374Z,20.60
2017-09-24T21:44:37.278Z,21.40
2017-09-24T21:47:06.133Z,23.10
2017-09-24T21:49:34.996Z,22.63
2017-09-24T21:52:03.899Z,26.33
2017-09-24T21:54:32.778Z,23.67
2017-09-24T21:57:01.626Z,23.40
2017-09-24T21:59:30.514Z,24.83
2017-09-24T22:01:59.362Z,25.40
2017-09-24T22:04:28.227Z,25.00
2017-09-24T22:06:57.157Z,25.63
2017-09-24T22:09:26.014Z,24.80
2017-09-24T22:11:54.871Z,26.37
2017-09-24T22:14:23.919Z,23.20
2017-09-24T22:16:53.120Z,23.93
2017-09-24T22:19:21.998Z,19.80
2017-09-24T22:21:50.907Z,22.40
2017-09-24T22:24:19.756Z,21.50
2017-09-24T22:26:48.613Z,21.90
2017-09-24T22:29:17.534Z,21.93
2017-09-24T22:31:46.452Z,21.23
2017-09-24T22:34:15.317Z,26.43
2017-09-24T22:36:44.219Z,22.83
2017-09-24T22:39:13.118Z,25.40
2017-09-24T22:41:42.045Z,19.87
2017-09-24T22:44:10.950Z,19.60
2017-09-24T22:46:39.839Z,19.47
2017-09-24T22:49:08.705Z,22.57
2017-09-24T22:51:37.791Z,19.17
2017-09-24T22:54:06.634Z,20.80
2017-09-24T22:56:35.498Z,20.80
2017-09-24T22:59:04.555Z,20.87
2017-09-24T23:01:33.451Z,40.67
2017-09-24T23:04:02.309Z,19.93
2017-09-24T23:06:31.225Z,19.60
2017-09-24T23:09:00.086Z,20.87
2017-09-24T23:11:28.946Z,18.70
2017-09-24T23:13:57.826Z,18.17
2017-09-24T23:16:26.702Z,19.40
2017-09-24T23:18:55.558Z,20.10
2017-09-24T23:21:24.464Z,21.27
2017-09-24T23:23:53.327Z,20.17
2017-09-24T23:26:22.193Z,19.13
2017-09-24T23:28:51.097Z,20.13
2017-09-24T23:31:20.003Z,19.30
2017-09-24T23:33:48.877Z,17.37
2017-09-24T23:36:17.847Z,18.97
2017-09-24T23:38:46.712Z,18.73
2017-09-24T23:41:15.579Z,15.70
2017-09-24T23:43:44.490Z,15.70
2017-09-24T23:46:13.341Z,17.03
2017-09-24T23:48:42.292Z,16.43
2017-09-24T23:51:11.225Z,17.50
2017-09-24T23:53:40.078Z,17.43
2017-09-24T23:56:08.938Z,16.10
2017-09-24T23:58:38.001Z,18.77
